sensor_id;sensor_type;location;lat;lon;timestamp;P1;durP1;ratioP1;P2;durP2;ratioP2
27305;SDS011;14792;50.886;6.468;2023-12-29T00:01:35;6.53;;;1.60;;
27305;SDS011;14792;50.886;6.468;2023-12-29T00:04:36;7.28;;;1.57;;
27305;SDS011;14792;50.886;6.468;2023-12-29T00:07:38;6.78;;;1.40;;
27305;SDS011;14792;50.886;6.468;2023-12-29T00:10:40;11.00;;;1.90;;
27305;SDS011;14792;50.886;6.468;2023-12-29T00:13:41;9.20;;;1.52;;
27305;SDS011;14792;50.886;6.468;2023-12-29T00:16:43;11.73;;;1.70;;
27305;SDS011;14792;50.886;6.468;2023-12-29T00:19:44;7.90;;;1.77;;
27305;SDS011;14792;50.886;6.468;2023-12-29T00:22:46;9.43;;;1.95;;
27305;SDS011;14792;50.886;6.468;2023-12-29T00:25:48;6.87;;;1.80;;
27305;SDS011;14792;50.886;6.468;2023-12-29T00:28:50;6.37;;;1.20;;
27305;SDS011;14792;50.886;6.468;2023-12-29T00:31:51;10.70;;;1.70;;
27305;SDS011;14792;50.886;6.468;2023-12-29T00:34:52;9.90;;;1.77;;
27305;SDS011;14792;50.886;6.468;2023-12-29T00:37:54;7.97;;;1.80;;
27305;SDS011;14792;50.886;6.468;2023-12-29T00:40:55;9.28;;;1.62;;
27305;SDS011;14792;50.886;6.468;2023-12-29T00:43:57;10.18;;;1.98;;
27305;SDS011;14792;50.886;6.468;2023-12-29T00:46:59;9.58;;;1.60;;
27305;SDS011;14792;50.886;6.468;2023-12-29T00:50:00;9.83;;;2.27;;
27305;SDS011;14792;50.886;6.468;2023-12-29T00:53:02;7.92;;;1.70;;
27305;SDS011;14792;50.886;6.468;2023-12-29T00:56:09;13.20;;;2.00;;
27305;SDS011;14792;50.886;6.468;2023-12-29T00:59:05;5.42;;;1.15;;
27305;SDS011;14792;50.886;6.468;2023-12-29T01:02:07;12.53;;;1.62;;
27305;SDS011;14792;50.886;6.468;2023-12-29T01:05:08;13.28;;;2.15;;
27305;SDS011;14792;50.886;6.468;2023-12-29T01:08:10;9.85;;;1.67;;
27305;SDS011;14792;50.886;6.468;2023-12-29T01:11:11;7.65;;;1.70;;
27305;SDS011;14792;50.886;6.468;2023-12-29T01:14:13;12.25;;;2.02;;
27305;SDS011;14792;50.886;6.468;2023-12-29T01:17:14;18.02;;;2.95;;
27305;SDS011;14792;50.886;6.468;2023-12-29T01:20:16;8.68;;;1.92;;
27305;SDS011;14792;50.886;6.468;2023-12-29T01:23:18;9.78;;;1.95;;
27305;SDS011;14792;50.886;6.468;2023-12-29T01:26:19;7.17;;;1.95;;
27305;SDS011;14792;50.886;6.468;2023-12-29T01:29:21;6.83;;;1.57;;
27305;SDS011;14792;50.886;6.468;2023-12-29T01:32:22;11.90;;;1.70;;
27305;SDS011;14792;50.886;6.468;2023-12-29T01:35:24;12.47;;;2.72;;
27305;SDS011;14792;50.886;6.468;2023-12-29T01:38:26;6.55;;;1.90;;
27305;SDS011;14792;50.886;6.468;2023-12-29T01:41:27;12.20;;;1.80;;
27305;SDS011;14792;50.886;6.468;2023-12-29T01:44:29;8.35;;;2.22;;
27305;SDS011;14792;50.886;6.468;2023-12-29T01:47:30;8.38;;;2.22;;
27305;SDS011;14792;50.886;6.468;2023-12-29T01:50:32;6.42;;;2.02;;
27305;SDS011;14792;50.886;6.468;2023-12-29T01:53:34;7.75;;;1.85;;
27305;SDS011;14792;50.886;6.468;2023-12-29T01:56:35;8.83;;;1.87;;
27305;SDS011;14792;50.886;6.468;2023-12-29T01:59:37;15.08;;;2.00;;
27305;SDS011;14792;50.886;6.468;2023-12-29T02:02:38;7.00;;;1.75;;
27305;SDS011;14792;50.886;6.468;2023-12-29T02:05:40;13.40;;;2.40;;
27305;SDS011;14792;50.886;6.468;2023-12-29T02:08:41;10.58;;;2.08;;
27305;SDS011;14792;50.886;6.468;2023-12-29T02:11:43;8.25;;;2.22;;
27305;SDS011;14792;50.886;6.468;2023-12-29T02:14:45;8.35;;;1.98;;
27305;SDS011;14792;50.886;6.468;2023-12-29T02:18:10;9.20;;;1.92;;
27305;SDS011;14792;50.886;6.468;2023-12-29T02:20:54;13.72;;;1.65;;
27305;SDS011;14792;50.886;6.468;2023-12-29T02:23:55;8.70;;;1.95;;
27305;SDS011;14792;50.886;6.468;2023-12-29T02:27:21;12.10;;;2.20;;
27305;SDS011;14792;50.886;6.468;2023-12-29T02:30:09;12.68;;;2.85;;
27305;SDS011;14792;50.886;6.468;2023-12-29T02:33:13;9.23;;;1.87;;
27305;SDS011;14792;50.886;6.468;2023-12-29T02:36:13;12.40;;;2.27;;
27305;SDS011;14792;50.886;6.468;2023-12-29T02:39:14;10.32;;;2.60;;
27305;SDS011;14792;50.886;6.468;2023-12-29T02:42:16;10.72;;;2.22;;
27305;SDS011;14792;50.886;6.468;2023-12-29T02:45:17;9.48;;;1.90;;
27305;SDS011;14792;50.886;6.468;2023-12-29T02:48:19;19.05;;;2.47;;
27305;SDS011;14792;50.886;6.468;2023-12-29T02:51:21;8.63;;;1.70;;
27305;SDS011;14792;50.886;6.468;2023-12-29T02:54:22;11.03;;;1.82;;
27305;SDS011;14792;50.886;6.468;2023-12-29T02:57:24;14.38;;;1.72;;
27305;SDS011;14792;50.886;6.468;2023-12-29T03:00:25;19.60;;;2.10;;
27305;SDS011;14792;50.886;6.468;2023-12-29T03:03:27;9.50;;;1.60;;
27305;SDS011;14792;50.886;6.468;2023-12-29T03:06:29;10.78;;;1.95;;
27305;SDS011;14792;50.886;6.468;2023-12-29T03:09:30;8.10;;;1.70;;
27305;SDS011;14792;50.886;6.468;2023-12-29T03:12:32;8.65;;;1.57;;
27305;SDS011;14792;50.886;6.468;2023-12-29T03:15:33;9.98;;;2.12;;
27305;SDS011;14792;50.886;6.468;2023-12-29T03:18:35;12.43;;;1.82;;
27305;SDS011;14792;50.886;6.468;2023-12-29T03:21:36;7.20;;;1.72;;
27305;SDS011;14792;50.886;6.468;2023-12-29T03:24:40;10.95;;;1.82;;
27305;SDS011;14792;50.886;6.468;2023-12-29T03:27:40;6.75;;;1.40;;
27305;SDS011;14792;50.886;6.468;2023-12-29T03:30:41;12.95;;;2.22;;
27305;SDS011;14792;50.886;6.468;2023-12-29T03:33:43;15.10;;;2.62;;
27305;SDS011;14792;50.886;6.468;2023-12-29T03:36:44;13.50;;;1.98;;
27305;SDS011;14792;50.886;6.468;2023-12-29T03:39:46;10.28;;;2.10;;
27305;SDS011;14792;50.886;6.468;2023-12-29T03:42:48;19.20;;;2.00;;
27305;SDS011;14792;50.886;6.468;2023-12-29T03:45:49;7.10;;;1.80;;
27305;SDS011;14792;50.886;6.468;2023-12-29T03:48:51;9.25;;;1.92;;
27305;SDS011;14792;50.886;6.468;2023-12-29T03:51:52;10.82;;;2.25;;
27305;SDS011;14792;50.886;6.468;2023-12-29T03:54:54;12.98;;;2.02;;
27305;SDS011;14792;50.886;6.468;2023-12-29T03:57:56;10.65;;;1.92;;
27305;SDS011;14792;50.886;6.468;2023-12-29T04:00:57;11.65;;;2.40;;
27305;SDS011;14792;50.886;6.468;2023-12-29T04:03:59;8.55;;;1.82;;
27305;SDS011;14792;50.886;6.468;2023-12-29T04:07:00;10.32;;;2.30;;
27305;SDS011;14792;50.886;6.468;2023-12-29T04:10:02;12.65;;;2.02;;
27305;SDS011;14792;50.886;6.468;2023-12-29T04:13:03;13.48;;;2.30;;
27305;SDS011;14792;50.886;6.468;2023-12-29T04:16:05;11.80;;;1.95;;
27305;SDS011;14792;50.886;6.468;2023-12-29T04:19:07;11.83;;;1.98;;
27305;SDS011;14792;50.886;6.468;2023-12-29T04:22:08;13.30;;;2.20;;
27305;SDS011;14792;50.886;6.468;2023-12-29T04:25:10;10.98;;;2.08;;
27305;SDS011;14792;50.886;6.468;2023-12-29T04:28:11;11.28;;;2.08;;
27305;SDS011;14792;50.886;6.468;2023-12-29T04:31:13;10.85;;;2.10;;
27305;SDS011;14792;50.886;6.468;2023-12-29T04:34:15;9.88;;;1.65;;
27305;SDS011;14792;50.886;6.468;2023-12-29T04:37:16;13.10;;;2.60;;
27305;SDS011;14792;50.886;6.468;2023-12-29T04:40:18;10.60;;;2.00;;
27305;SDS011;14792;50.886;6.468;2023-12-29T04:43:20;8.30;;;1.98;;
27305;SDS011;14792;50.886;6.468;2023-12-29T04:46:22;7.25;;;1.67;;
27305;SDS011;14792;50.886;6.468;2023-12-29T04:49:23;10.68;;;2.20;;
27305;SDS011;14792;50.886;6.468;2023-12-29T04:52:25;10.13;;;2.08;;
27305;SDS011;14792;50.886;6.468;2023-12-29T04:55:27;10.70;;;2.05;;
27305;SDS011;14792;50.886;6.468;2023-12-29T04:58:28;10.90;;;2.60;;
27305;SDS011;14792;50.886;6.468;2023-12-29T05:01:30;8.53;;;1.98;;
27305;SDS011;14792;50.886;6.468;2023-12-29T05:04:31;10.93;;;2.62;;
27305;SDS011;14792;50.886;6.468;2023-12-29T05:07:33;9.90;;;1.62;;
27305;SDS011;14792;50.886;6.468;2023-12-29T05:10:35;12.50;;;2.00;;
27305;SDS011;14792;50.886;6.468;2023-12-29T05:13:36;10.78;;;2.00;;
27305;SDS011;14792;50.886;6.468;2023-12-29T05:16:38;12.30;;;1.98;;
27305;SDS011;14792;50.886;6.468;2023-12-29T05:19:39;12.20;;;2.37;;
27305;SDS011;14792;50.886;6.468;2023-12-29T05:22:41;10.35;;;2.58;;
27305;SDS011;14792;50.886;6.468;2023-12-29T05:25:42;12.82;;;2.45;;
27305;SDS011;14792;50.886;6.468;2023-12-29T05:28:44;10.68;;;1.92;;
27305;SDS011;14792;50.886;6.468;2023-12-29T05:31:46;9.35;;;2.05;;
27305;SDS011;14792;50.886;6.468;2023-12-29T05:34:47;7.22;;;1.60;;
27305;SDS011;14792;50.886;6.468;2023-12-29T05:37:49;11.43;;;1.82;;
27305;SDS011;14792;50.886;6.468;2023-12-29T05:40:50;9.88;;;1.87;;
27305;SDS011;14792;50.886;6.468;2023-12-29T05:43:52;11.30;;;1.95;;
27305;SDS011;14792;50.886;6.468;2023-12-29T05:46:54;9.40;;;1.80;;
27305;SDS011;14792;50.886;6.468;2023-12-29T05:49:55;12.73;;;1.72;;
27305;SDS011;14792;50.886;6.468;2023-12-29T05:52:57;10.68;;;1.70;;
27305;SDS011;14792;50.886;6.468;2023-12-29T05:55:58;9.75;;;1.62;;
27305;SDS011;14792;50.886;6.468;2023-12-29T05:59:00;9.33;;;1.72;;
27305;SDS011;14792;50.886;6.468;2023-12-29T06:02:02;7.92;;;1.50;;
27305;SDS011;14792;50.886;6.468;2023-12-29T06:05:03;8.63;;;1.85;;
27305;SDS011;14792;50.886;6.468;2023-12-29T06:08:05;6.37;;;1.82;;
27305;SDS011;14792;50.886;6.468;2023-12-29T06:11:06;9.68;;;1.92;;
27305;SDS011;14792;50.886;6.468;2023-12-29T06:14:08;10.90;;;1.65;;
27305;SDS011;14792;50.886;6.468;2023-12-29T06:17:09;9.68;;;2.42;;
27305;SDS011;14792;50.886;6.468;2023-12-29T06:20:11;6.20;;;1.45;;
27305;SDS011;14792;50.886;6.468;2023-12-29T06:23:13;7.33;;;1.80;;
27305;SDS011;14792;50.886;6.468;2023-12-29T06:26:18;9.60;;;1.77;;
27305;SDS011;14792;50.886;6.468;2023-12-29T06:29:19;7.78;;;1.95;;
27305;SDS011;14792;50.886;6.468;2023-12-29T06:32:20;11.45;;;2.15;;
27305;SDS011;14792;50.886;6.468;2023-12-29T06:35:22;10.05;;;1.85;;
27305;SDS011;14792;50.886;6.468;2023-12-29T06:38:24;9.08;;;1.55;;
27305;SDS011;14792;50.886;6.468;2023-12-29T06:41:25;14.87;;;2.30;;
27305;SDS011;14792;50.886;6.468;2023-12-29T06:44:27;12.85;;;1.65;;
27305;SDS011;14792;50.886;6.468;2023-12-29T06:47:28;10.65;;;1.82;;
27305;SDS011;14792;50.886;6.468;2023-12-29T06:50:30;8.18;;;1.40;;
27305;SDS011;14792;50.886;6.468;2023-12-29T06:53:31;12.45;;;1.65;;
27305;SDS011;14792;50.886;6.468;2023-12-29T06:56:33;14.18;;;1.92;;
27305;SDS011;14792;50.886;6.468;2023-12-29T06:59:35;12.75;;;1.70;;
27305;SDS011;14792;50.886;6.468;2023-12-29T07:02:39;8.73;;;1.67;;
27305;SDS011;14792;50.886;6.468;2023-12-29T07:05:41;9.18;;;1.22;;
27305;SDS011;14792;50.886;6.468;2023-12-29T07:08:42;6.12;;;1.60;;
27305;SDS011;14792;50.886;6.468;2023-12-29T07:11:50;7.95;;;1.55;;
27305;SDS011;14792;50.886;6.468;2023-12-29T07:14:51;7.60;;;1.25;;
27305;SDS011;14792;50.886;6.468;2023-12-29T07:17:53;8.45;;;1.57;;
27305;SDS011;14792;50.886;6.468;2023-12-29T07:20:55;7.58;;;1.67;;
27305;SDS011;14792;50.886;6.468;2023-12-29T07:23:56;12.58;;;2.00;;
27305;SDS011;14792;50.886;6.468;2023-12-29T07:26:58;6.15;;;1.27;;
27305;SDS011;14792;50.886;6.468;2023-12-29T07:29:59;8.98;;;1.67;;
27305;SDS011;14792;50.886;6.468;2023-12-29T07:33:01;6.35;;;1.65;;
27305;SDS011;14792;50.886;6.468;2023-12-29T07:36:03;6.78;;;1.52;;
27305;SDS011;14792;50.886;6.468;2023-12-29T07:39:04;10.35;;;1.70;;
27305;SDS011;14792;50.886;6.468;2023-12-29T07:42:06;14.30;;;1.92;;
27305;SDS011;14792;50.886;6.468;2023-12-29T07:45:07;10.35;;;1.82;;
27305;SDS011;14792;50.886;6.468;2023-12-29T07:48:09;7.60;;;1.47;;
27305;SDS011;14792;50.886;6.468;2023-12-29T07:51:11;7.40;;;1.42;;
27305;SDS011;14792;50.886;6.468;2023-12-29T07:54:12;8.83;;;1.70;;
27305;SDS011;14792;50.886;6.468;2023-12-29T07:57:14;12.78;;;1.82;;
27305;SDS011;14792;50.886;6.468;2023-12-29T08:00:15;7.90;;;1.90;;
27305;SDS011;14792;50.886;6.468;2023-12-29T08:03:17;12.40;;;1.42;;
27305;SDS011;14792;50.886;6.468;2023-12-29T08:06:19;10.18;;;2.15;;
27305;SDS011;14792;50.886;6.468;2023-12-29T08:09:20;12.10;;;2.20;;
27305;SDS011;14792;50.886;6.468;2023-12-29T08:12:22;10.72;;;2.12;;
27305;SDS011;14792;50.886;6.468;2023-12-29T08:15:23;13.55;;;2.08;;
27305;SDS011;14792;50.886;6.468;2023-12-29T08:18:25;11.85;;;2.00;;
27305;SDS011;14792;50.886;6.468;2023-12-29T08:21:26;12.53;;;2.08;;
27305;SDS011;14792;50.886;6.468;2023-12-29T08:24:28;17.50;;;2.40;;
27305;SDS011;14792;50.886;6.468;2023-12-29T08:27:30;9.00;;;2.20;;
27305;SDS011;14792;50.886;6.468;2023-12-29T08:30:35;8.60;;;2.35;;
27305;SDS011;14792;50.886;6.468;2023-12-29T08:33:37;8.88;;;2.50;;
27305;SDS011;14792;50.886;6.468;2023-12-29T08:36:38;10.30;;;1.75;;
27305;SDS011;14792;50.886;6.468;2023-12-29T08:39:40;14.33;;;2.12;;
27305;SDS011;14792;50.886;6.468;2023-12-29T08:42:42;10.05;;;1.67;;
27305;SDS011;14792;50.886;6.468;2023-12-29T08:45:43;15.20;;;3.20;;
27305;SDS011;14792;50.886;6.468;2023-12-29T08:48:45;12.47;;;2.17;;
27305;SDS011;14792;50.886;6.468;2023-12-29T08:51:46;9.98;;;1.82;;
27305;SDS011;14792;50.886;6.468;2023-12-29T08:54:48;13.55;;;2.20;;
27305;SDS011;14792;50.886;6.468;2023-12-29T08:57:50;7.53;;;1.42;;
27305;SDS011;14792;50.886;6.468;2023-12-29T09:00:51;9.05;;;1.35;;
27305;SDS011;14792;50.886;6.468;2023-12-29T09:03:53;8.98;;;1.95;;
27305;SDS011;14792;50.886;6.468;2023-12-29T09:06:54;10.30;;;1.50;;
27305;SDS011;14792;50.886;6.468;2023-12-29T09:09:56;5.65;;;1.75;;
27305;SDS011;14792;50.886;6.468;2023-12-29T09:12:57;11.80;;;2.10;;
27305;SDS011;14792;50.886;6.468;2023-12-29T09:15:59;7.75;;;1.55;;
27305;SDS011;14792;50.886;6.468;2023-12-29T09:19:01;9.73;;;2.08;;
27305;SDS011;14792;50.886;6.468;2023-12-29T09:22:02;6.25;;;1.60;;
27305;SDS011;14792;50.886;6.468;2023-12-29T09:25:06;6.40;;;1.10;;
27305;SDS011;14792;50.886;6.468;2023-12-29T09:28:08;3.90;;;1.10;;
27305;SDS011;14792;50.886;6.468;2023-12-29T09:31:12;7.08;;;1.30;;
27305;SDS011;14792;50.886;6.468;2023-12-29T09:34:14;7.05;;;1.12;;
27305;SDS011;14792;50.886;6.468;2023-12-29T09:37:17;6.85;;;1.40;;
27305;SDS011;14792;50.886;6.468;2023-12-29T09:40:17;6.35;;;1.27;;
27305;SDS011;14792;50.886;6.468;2023-12-29T09:43:19;4.30;;;1.00;;
27305;SDS011;14792;50.886;6.468;2023-12-29T09:46:21;6.62;;;0.80;;
27305;SDS011;14792;50.886;6.468;2023-12-29T09:49:22;8.43;;;1.77;;
27305;SDS011;14792;50.886;6.468;2023-12-29T09:52:23;4.03;;;0.90;;
27305;SDS011;14792;50.886;6.468;2023-12-29T09:55:25;2.05;;;0.85;;
27305;SDS011;14792;50.886;6.468;2023-12-29T09:58:27;5.67;;;1.07;;
27305;SDS011;14792;50.886;6.468;2023-12-29T10:01:28;3.87;;;0.90;;
27305;SDS011;14792;50.886;6.468;2023-12-29T10:04:30;4.35;;;1.00;;
27305;SDS011;14792;50.886;6.468;2023-12-29T10:07:35;6.47;;;1.15;;
27305;SDS011;14792;50.886;6.468;2023-12-29T10:10:33;4.55;;;0.90;;
27305;SDS011;14792;50.886;6.468;2023-12-29T10:13:35;6.20;;;0.90;;
27305;SDS011;14792;50.886;6.468;2023-12-29T10:16:41;7.12;;;1.25;;
27305;SDS011;14792;50.886;6.468;2023-12-29T10:19:41;4.45;;;1.30;;
27305;SDS011;14792;50.886;6.468;2023-12-29T10:22:46;7.05;;;1.35;;
27305;SDS011;14792;50.886;6.468;2023-12-29T10:25:47;6.87;;;1.25;;
27305;SDS011;14792;50.886;6.468;2023-12-29T10:28:48;4.62;;;0.98;;
27305;SDS011;14792;50.886;6.468;2023-12-29T10:31:50;4.72;;;0.80;;
27305;SDS011;14792;50.886;6.468;2023-12-29T10:34:51;4.15;;;1.10;;
27305;SDS011;14792;50.886;6.468;2023-12-29T10:37:53;4.17;;;0.98;;
27305;SDS011;14792;50.886;6.468;2023-12-29T10:40:54;4.15;;;0.82;;
27305;SDS011;14792;50.886;6.468;2023-12-29T10:43:56;5.83;;;1.10;;
27305;SDS011;14792;50.886;6.468;2023-12-29T10:46:58;7.85;;;1.02;;
27305;SDS011;14792;50.886;6.468;2023-12-29T10:49:59;2.60;;;0.90;;
27305;SDS011;14792;50.886;6.468;2023-12-29T10:53:10;5.40;;;0.90;;
27305;SDS011;14792;50.886;6.468;2023-12-29T10:56:17;4.42;;;0.60;;
27305;SDS011;14792;50.886;6.468;2023-12-29T10:59:19;4.00;;;1.27;;
27305;SDS011;14792;50.886;6.468;2023-12-29T11:02:22;4.92;;;0.82;;
27305;SDS011;14792;50.886;6.468;2023-12-29T11:05:27;7.55;;;1.35;;
27305;SDS011;14792;50.886;6.468;2023-12-29T11:08:28;5.50;;;1.25;;
27305;SDS011;14792;50.886;6.468;2023-12-29T11:11:30;4.25;;;1.00;;
27305;SDS011;14792;50.886;6.468;2023-12-29T11:14:31;1.52;;;0.78;;
27305;SDS011;14792;50.886;6.468;2023-12-29T11:17:34;2.72;;;0.80;;
27305;SDS011;14792;50.886;6.468;2023-12-29T11:20:35;3.30;;;0.90;;
27305;SDS011;14792;50.886;6.468;2023-12-29T11:23:36;3.02;;;1.00;;
27305;SDS011;14792;50.886;6.468;2023-12-29T11:26:38;3.02;;;0.82;;
27305;SDS011;14792;50.886;6.468;2023-12-29T11:29:40;4.08;;;0.80;;
27305;SDS011;14792;50.886;6.468;2023-12-29T11:32:43;4.20;;;0.90;;
27305;SDS011;14792;50.886;6.468;2023-12-29T11:36:12;3.75;;;1.22;;
27305;SDS011;14792;50.886;6.468;2023-12-29T11:42:22;2.45;;;0.90;;
27305;SDS011;14792;50.886;6.468;2023-12-29T11:45:26;7.15;;;0.80;;
27305;SDS011;14792;50.886;6.468;2023-12-29T11:51:58;4.87;;;0.83;;
27305;SDS011;14792;50.886;6.468;2023-12-29T11:55:07;3.10;;;0.70;;
27305;SDS011;14792;50.886;6.468;2023-12-29T11:58:23;4.05;;;0.90;;
27305;SDS011;14792;50.886;6.468;2023-12-29T12:01:43;3.47;;;0.60;;
27305;SDS011;14792;50.886;6.468;2023-12-29T12:04:35;4.42;;;0.93;;
27305;SDS011;14792;50.886;6.468;2023-12-29T12:10:41;8.83;;;2.80;;
27305;SDS011;14792;50.886;6.468;2023-12-29T12:13:43;7.00;;;2.67;;
27305;SDS011;14792;50.886;6.468;2023-12-29T12:16:47;7.12;;;1.12;;
27305;SDS011;14792;50.886;6.468;2023-12-29T12:19:52;2.50;;;1.17;;
27305;SDS011;14792;50.886;6.468;2023-12-29T12:22:57;8.45;;;3.10;;
27305;SDS011;14792;50.886;6.468;2023-12-29T12:26:00;2.52;;;0.85;;
27305;SDS011;14792;50.886;6.468;2023-12-29T12:29:01;6.40;;;1.55;;
27305;SDS011;14792;50.886;6.468;2023-12-29T12:32:03;6.00;;;2.08;;
27305;SDS011;14792;50.886;6.468;2023-12-29T12:35:05;7.47;;;2.33;;
27305;SDS011;14792;50.886;6.468;2023-12-29T12:38:07;4.42;;;1.62;;
27305;SDS011;14792;50.886;6.468;2023-12-29T12:41:11;4.67;;;1.47;;
27305;SDS011;14792;50.886;6.468;2023-12-29T12:44:13;4.53;;;1.30;;
27305;SDS011;14792;50.886;6.468;2023-12-29T12:47:15;1.62;;;0.90;;
27305;SDS011;14792;50.886;6.468;2023-12-29T12:50:15;8.18;;;0.90;;
27305;SDS011;14792;50.886;6.468;2023-12-29T12:53:17;1.20;;;0.57;;
27305;SDS011;14792;50.886;6.468;2023-12-29T12:56:21;1.85;;;0.72;;
27305;SDS011;14792;50.886;6.468;2023-12-29T12:59:23;2.02;;;0.60;;
27305;SDS011;14792;50.886;6.468;2023-12-29T13:02:25;3.02;;;0.90;;
27305;SDS011;14792;50.886;6.468;2023-12-29T13:05:26;3.15;;;0.93;;
27305;SDS011;14792;50.886;6.468;2023-12-29T13:08:28;3.58;;;0.65;;
27305;SDS011;14792;50.886;6.468;2023-12-29T13:11:29;2.08;;;0.40;;
27305;SDS011;14792;50.886;6.468;2023-12-29T13:14:31;4.35;;;0.70;;
27305;SDS011;14792;50.886;6.468;2023-12-29T13:17:32;2.20;;;0.60;;
27305;SDS011;14792;50.886;6.468;2023-12-29T13:20:42;1.75;;;0.35;;
27305;SDS011;14792;50.886;6.468;2023-12-29T13:23:36;4.37;;;0.57;;
27305;SDS011;14792;50.886;6.468;2023-12-29T13:26:37;5.85;;;1.00;;
27305;SDS011;14792;50.886;6.468;2023-12-29T13:29:39;2.05;;;0.95;;
27305;SDS011;14792;50.886;6.468;2023-12-29T13:32:40;2.15;;;0.60;;
27305;SDS011;14792;50.886;6.468;2023-12-29T13:35:47;2.98;;;0.60;;
27305;SDS011;14792;50.886;6.468;2023-12-29T13:38:44;5.87;;;0.90;;
27305;SDS011;14792;50.886;6.468;2023-12-29T13:41:45;2.95;;;0.75;;
27305;SDS011;14792;50.886;6.468;2023-12-29T13:44:47;2.20;;;0.70;;
27305;SDS011;14792;50.886;6.468;2023-12-29T13:47:48;4.83;;;1.02;;
27305;SDS011;14792;50.886;6.468;2023-12-29T13:50:50;4.92;;;0.90;;
27305;SDS011;14792;50.886;6.468;2023-12-29T13:53:58;5.25;;;1.00;;
27305;SDS011;14792;50.886;6.468;2023-12-29T13:57:02;5.12;;;1.27;;
27305;SDS011;14792;50.886;6.468;2023-12-29T14:00:16;2.87;;;0.93;;
27305;SDS011;14792;50.886;6.468;2023-12-29T14:03:23;3.42;;;1.10;;
27305;SDS011;14792;50.886;6.468;2023-12-29T14:06:29;1.45;;;0.75;;
27305;SDS011;14792;50.886;6.468;2023-12-29T14:09:31;5.25;;;1.17;;
27305;SDS011;14792;50.886;6.468;2023-12-29T14:12:33;3.92;;;1.20;;
27305;SDS011;14792;50.886;6.468;2023-12-29T14:15:35;2.62;;;0.70;;
27305;SDS011;14792;50.886;6.468;2023-12-29T14:21:43;2.80;;;0.80;;
27305;SDS011;14792;50.886;6.468;2023-12-29T14:24:45;4.85;;;0.78;;
27305;SDS011;14792;50.886;6.468;2023-12-29T14:27:51;2.45;;;0.60;;
27305;SDS011;14792;50.886;6.468;2023-12-29T14:30:48;6.70;;;0.85;;
27305;SDS011;14792;50.886;6.468;2023-12-29T14:33:50;1.32;;;0.57;;
27305;SDS011;14792;50.886;6.468;2023-12-29T14:36:51;1.70;;;0.68;;
27305;SDS011;14792;50.886;6.468;2023-12-29T14:39:53;2.55;;;0.70;;
27305;SDS011;14792;50.886;6.468;2023-12-29T14:42:54;1.72;;;0.60;;
27305;SDS011;14792;50.886;6.468;2023-12-29T14:45:56;1.07;;;0.68;;
27305;SDS011;14792;50.886;6.468;2023-12-29T14:48:58;0.85;;;0.68;;
27305;SDS011;14792;50.886;6.468;2023-12-29T14:51:59;5.25;;;0.90;;
27305;SDS011;14792;50.886;6.468;2023-12-29T14:55:01;1.90;;;0.33;;
27305;SDS011;14792;50.886;6.468;2023-12-29T14:58:02;0.88;;;0.45;;
27305;SDS011;14792;50.886;6.468;2023-12-29T15:01:04;1.12;;;0.53;;
27305;SDS011;14792;50.886;6.468;2023-12-29T15:04:05;1.70;;;0.70;;
27305;SDS011;14792;50.886;6.468;2023-12-29T15:07:07;0.88;;;0.40;;
27305;SDS011;14792;50.886;6.468;2023-12-29T15:10:09;2.90;;;0.55;;
27305;SDS011;14792;50.886;6.468;2023-12-29T15:13:10;1.77;;;0.60;;
27305;SDS011;14792;50.886;6.468;2023-12-29T15:16:12;1.98;;;0.40;;
27305;SDS011;14792;50.886;6.468;2023-12-29T15:19:13;2.10;;;0.62;;
27305;SDS011;14792;50.886;6.468;2023-12-29T15:22:15;2.62;;;0.60;;
27305;SDS011;14792;50.886;6.468;2023-12-29T15:25:17;1.10;;;0.60;;
27305;SDS011;14792;50.886;6.468;2023-12-29T15:28:18;0.68;;;0.42;;
27305;SDS011;14792;50.886;6.468;2023-12-29T15:31:20;0.70;;;0.40;;
27305;SDS011;14792;50.886;6.468;2023-12-29T15:34:21;1.50;;;0.60;;
27305;SDS011;14792;50.886;6.468;2023-12-29T15:37:23;2.15;;;0.68;;
27305;SDS011;14792;50.886;6.468;2023-12-29T15:40:24;1.02;;;0.40;;
27305;SDS011;14792;50.886;6.468;2023-12-29T15:43:26;5.42;;;1.20;;
27305;SDS011;14792;50.886;6.468;2023-12-29T15:46:28;3.65;;;1.20;;
27305;SDS011;14792;50.886;6.468;2023-12-29T15:49:29;4.00;;;0.80;;
27305;SDS011;14792;50.886;6.468;2023-12-29T15:52:31;2.47;;;1.10;;
27305;SDS011;14792;50.886;6.468;2023-12-29T15:55:32;1.40;;;0.65;;
27305;SDS011;14792;50.886;6.468;2023-12-29T15:58:34;4.35;;;0.85;;
27305;SDS011;14792;50.886;6.468;2023-12-29T16:01:36;2.12;;;0.80;;
27305;SDS011;14792;50.886;6.468;2023-12-29T16:04:37;2.58;;;0.80;;
27305;SDS011;14792;50.886;6.468;2023-12-29T16:07:39;3.02;;;0.90;;
27305;SDS011;14792;50.886;6.468;2023-12-29T16:10:40;2.95;;;1.10;;
27305;SDS011;14792;50.886;6.468;2023-12-29T16:13:42;4.92;;;1.65;;
27305;SDS011;14792;50.886;6.468;2023-12-29T16:16:44;7.08;;;1.50;;
27305;SDS011;14792;50.886;6.468;2023-12-29T16:19:45;4.40;;;1.07;;
27305;SDS011;14792;50.886;6.468;2023-12-29T16:22:47;4.20;;;0.82;;
27305;SDS011;14792;50.886;6.468;2023-12-29T16:25:48;1.95;;;0.90;;
27305;SDS011;14792;50.886;6.468;2023-12-29T16:28:53;1.72;;;0.88;;
27305;SDS011;14792;50.886;6.468;2023-12-29T16:31:54;2.27;;;0.72;;
27305;SDS011;14792;50.886;6.468;2023-12-29T16:34:56;2.10;;;0.90;;
27305;SDS011;14792;50.886;6.468;2023-12-29T16:37:58;4.35;;;1.05;;
27305;SDS011;14792;50.886;6.468;2023-12-29T16:40:59;3.10;;;0.90;;
27305;SDS011;14792;50.886;6.468;2023-12-29T16:44:01;3.05;;;0.70;;
27305;SDS011;14792;50.886;6.468;2023-12-29T16:47:02;1.75;;;0.80;;
27305;SDS011;14792;50.886;6.468;2023-12-29T16:50:04;2.40;;;0.90;;
27305;SDS011;14792;50.886;6.468;2023-12-29T16:53:06;3.62;;;0.85;;
27305;SDS011;14792;50.886;6.468;2023-12-29T16:56:07;2.70;;;0.78;;
27305;SDS011;14792;50.886;6.468;2023-12-29T16:59:09;5.20;;;0.98;;
27305;SDS011;14792;50.886;6.468;2023-12-29T17:02:10;3.00;;;0.70;;
27305;SDS011;14792;50.886;6.468;2023-12-29T17:05:12;3.25;;;0.82;;
27305;SDS011;14792;50.886;6.468;2023-12-29T17:08:14;2.98;;;0.95;;
27305;SDS011;14792;50.886;6.468;2023-12-29T17:11:15;2.98;;;1.10;;
27305;SDS011;14792;50.886;6.468;2023-12-29T17:14:17;3.25;;;0.98;;
27305;SDS011;14792;50.886;6.468;2023-12-29T17:17:19;5.35;;;0.95;;
27305;SDS011;14792;50.886;6.468;2023-12-29T17:20:20;2.27;;;1.00;;
27305;SDS011;14792;50.886;6.468;2023-12-29T17:23:22;2.52;;;0.90;;
27305;SDS011;14792;50.886;6.468;2023-12-29T17:26:23;4.87;;;1.10;;
27305;SDS011;14792;50.886;6.468;2023-12-29T17:29:25;4.35;;;1.10;;
27305;SDS011;14792;50.886;6.468;2023-12-29T17:32:27;5.30;;;0.98;;
27305;SDS011;14792;50.886;6.468;2023-12-29T17:35:29;4.30;;;1.10;;
27305;SDS011;14792;50.886;6.468;2023-12-29T17:38:30;4.25;;;1.25;;
27305;SDS011;14792;50.886;6.468;2023-12-29T17:41:32;3.75;;;1.27;;
27305;SDS011;14792;50.886;6.468;2023-12-29T17:44:34;2.22;;;0.85;;
27305;SDS011;14792;50.886;6.468;2023-12-29T17:47:36;5.12;;;1.20;;
27305;SDS011;14792;50.886;6.468;2023-12-29T17:50:38;2.40;;;0.90;;
27305;SDS011;14792;50.886;6.468;2023-12-29T17:53:39;3.35;;;1.25;;
27305;SDS011;14792;50.886;6.468;2023-12-29T17:56:41;6.47;;;1.57;;
27305;SDS011;14792;50.886;6.468;2023-12-29T17:59:43;7.50;;;1.60;;
27305;SDS011;14792;50.886;6.468;2023-12-29T18:02:44;8.68;;;2.00;;
27305;SDS011;14792;50.886;6.468;2023-12-29T18:05:46;7.90;;;1.90;;
27305;SDS011;14792;50.886;6.468;2023-12-29T18:08:48;5.85;;;1.57;;
27305;SDS011;14792;50.886;6.468;2023-12-29T18:11:50;10.75;;;1.55;;
27305;SDS011;14792;50.886;6.468;2023-12-29T18:14:53;7.70;;;1.45;;
27305;SDS011;14792;50.886;6.468;2023-12-29T18:17:55;8.65;;;2.55;;
27305;SDS011;14792;50.886;6.468;2023-12-29T18:20:57;7.42;;;1.70;;
27305;SDS011;14792;50.886;6.468;2023-12-29T18:23:58;6.15;;;1.87;;